sensor_id;sensor_type;location;lat;lon;timestamp;pressure;altitude;pressure_sealevel;temperature
68939;BMP180;59064;45.294;11.816;2023-06-24T00:00:24;101381.60;;;21.70
68939;BMP180;59064;45.294;11.816;2023-06-24T00:02:50;101381.60;;;21.60
68939;BMP180;59064;45.294;11.816;2023-06-24T00:05:18;101377.60;;;21.60
68939;BMP180;59064;45.294;11.816;2023-06-24T00:07:44;101374.00;;;21.70
68939;BMP180;59064;45.294;11.816;2023-06-24T00:10:11;101372.20;;;21.70
68939;BMP180;59064;45.294;11.816;2023-06-24T00:12:37;101374.80;;;21.60
68939;BMP180;59064;45.294;11.816;2023-06-24T00:15:05;101371.40;;;21.50
68939;BMP180;59064;45.294;11.816;2023-06-24T00:17:31;101369.40;;;21.50
68939;BMP180;59064;45.294;11.816;2023-06-24T00:19:57;101367.00;;;21.50
68939;BMP180;59064;45.294;11.816;2023-06-24T00:22:22;101368.20;;;21.50
68939;BMP180;59064;45.294;11.816;2023-06-24T00:24:48;101363.20;;;21.58
68939;BMP180;59064;45.294;11.816;2023-06-24T00:27:13;101359.00;;;21.52
68939;BMP180;59064;45.294;11.816;2023-06-24T00:29:38;101357.00;;;21.50
68939;BMP180;59064;45.294;11.816;2023-06-24T00:32:05;101354.80;;;21.52
68939;BMP180;59064;45.294;11.816;2023-06-24T00:34:30;101352.00;;;21.50
68939;BMP180;59064;45.294;11.816;2023-06-24T00:36:56;101355.80;;;21.38
68939;BMP180;59064;45.294;11.816;2023-06-24T00:39:21;101353.60;;;21.30
68939;BMP180;59064;45.294;11.816;2023-06-24T00:41:47;101356.40;;;21.20
68939;BMP180;59064;45.294;11.816;2023-06-24T00:44:13;101355.20;;;21.10
68939;BMP180;59064;45.294;11.816;2023-06-24T00:46:39;101366.60;;;21.00
68939;BMP180;59064;45.294;11.816;2023-06-24T00:49:05;101364.00;;;20.90
68939;BMP180;59064;45.294;11.816;2023-06-24T00:51:30;101372.00;;;20.80
68939;BMP180;59064;45.294;11.816;2023-06-24T00:53:57;101373.00;;;20.72
68939;BMP180;59064;45.294;11.816;2023-06-24T00:56:27;101378.40;;;20.66
68939;BMP180;59064;45.294;11.816;2023-06-24T00:58:54;101386.60;;;20.60
68939;BMP180;59064;45.294;11.816;2023-06-24T01:01:20;101388.60;;;20.56
68939;BMP180;59064;45.294;11.816;2023-06-24T01:03:46;101385.00;;;20.50
68939;BMP180;59064;45.294;11.816;2023-06-24T01:06:13;101382.00;;;20.50
68939;BMP180;59064;45.294;11.816;2023-06-24T01:08:39;101382.00;;;20.44
68939;BMP180;59064;45.294;11.816;2023-06-24T01:11:05;101374.60;;;20.40
68939;BMP180;59064;45.294;11.816;2023-06-24T01:13:30;101371.60;;;20.40
68939;BMP180;59064;45.294;11.816;2023-06-24T01:16:00;101373.40;;;20.40
68939;BMP180;59064;45.294;11.816;2023-06-24T01:18:33;101368.20;;;20.40
68939;BMP180;59064;45.294;11.816;2023-06-24T01:21:12;101372.20;;;20.30
68939;BMP180;59064;45.294;11.816;2023-06-24T01:29:47;101389.60;;;20.12
68939;BMP180;59064;45.294;11.816;2023-06-24T01:35:29;101398.40;;;19.76
68939;BMP180;59064;45.294;11.816;2023-06-24T01:37:49;101408.00;;;19.60
68939;BMP180;59064;45.294;11.816;2023-06-24T01:40:38;101404.00;;;19.40
68939;BMP180;59064;45.294;11.816;2023-06-24T01:43:09;101403.60;;;19.20
68939;BMP180;59064;45.294;11.816;2023-06-24T01:46:01;101404.80;;;19.10
68939;BMP180;59064;45.294;11.816;2023-06-24T01:48:29;101408.60;;;19.00
68939;BMP180;59064;45.294;11.816;2023-06-24T01:51:01;101414.60;;;19.00
68939;BMP180;59064;45.294;11.816;2023-06-24T01:53:28;101423.80;;;19.00
68939;BMP180;59064;45.294;11.816;2023-06-24T01:55:58;101421.40;;;18.96
68939;BMP180;59064;45.294;11.816;2023-06-24T01:58:25;101421.20;;;18.90
68939;BMP180;59064;45.294;11.816;2023-06-24T02:00:51;101419.00;;;18.90
68939;BMP180;59064;45.294;11.816;2023-06-24T02:03:18;101422.00;;;18.94
68939;BMP180;59064;45.294;11.816;2023-06-24T02:05:46;101418.00;;;19.00
68939;BMP180;59064;45.294;11.816;2023-06-24T02:08:13;101424.80;;;19.06
68939;BMP180;59064;45.294;11.816;2023-06-24T02:10:40;101425.80;;;19.10
68939;BMP180;59064;45.294;11.816;2023-06-24T02:13:09;101431.20;;;19.12
68939;BMP180;59064;45.294;11.816;2023-06-24T02:15:36;101430.80;;;19.10
68939;BMP180;59064;45.294;11.816;2023-06-24T02:18:04;101429.60;;;18.92
68939;BMP180;59064;45.294;11.816;2023-06-24T02:20:31;101430.20;;;18.90
68939;BMP180;59064;45.294;11.816;2023-06-24T02:22:58;101431.20;;;18.90
68939;BMP180;59064;45.294;11.816;2023-06-24T02:25:26;101434.00;;;19.00
68939;BMP180;59064;45.294;11.816;2023-06-24T02:27:53;101436.00;;;19.00
68939;BMP180;59064;45.294;11.816;2023-06-24T02:30:20;101443.40;;;19.00
68939;BMP180;59064;45.294;11.816;2023-06-24T02:32:46;101439.00;;;18.90
68939;BMP180;59064;45.294;11.816;2023-06-24T02:35:12;101434.20;;;18.90
68939;BMP180;59064;45.294;11.816;2023-06-24T02:37:38;101428.20;;;18.90
68939;BMP180;59064;45.294;11.816;2023-06-24T02:40:04;101426.20;;;18.90
68939;BMP180;59064;45.294;11.816;2023-06-24T02:42:31;101422.60;;;18.80
68939;BMP180;59064;45.294;11.816;2023-06-24T02:44:56;101423.60;;;18.80
68939;BMP180;59064;45.294;11.816;2023-06-24T02:47:23;101427.80;;;18.90
68939;BMP180;59064;45.294;11.816;2023-06-24T02:49:49;101426.80;;;18.84
68939;BMP180;59064;45.294;11.816;2023-06-24T02:52:16;101432.20;;;18.80
68939;BMP180;59064;45.294;11.816;2023-06-24T02:54:42;101434.40;;;18.70
68939;BMP180;59064;45.294;11.816;2023-06-24T02:57:08;101438.40;;;18.70
68939;BMP180;59064;45.294;11.816;2023-06-24T02:59:34;101444.60;;;18.70
68939;BMP180;59064;45.294;11.816;2023-06-24T03:02:01;101453.00;;;18.62
68939;BMP180;59064;45.294;11.816;2023-06-24T03:04:28;101456.00;;;18.60
68939;BMP180;59064;45.294;11.816;2023-06-24T03:06:54;101457.80;;;18.56
68939;BMP180;59064;45.294;11.816;2023-06-24T03:09:21;101459.20;;;18.54
68939;BMP180;59064;45.294;11.816;2023-06-24T03:11:48;101461.40;;;18.60
68939;BMP180;59064;45.294;11.816;2023-06-24T03:14:13;101465.80;;;18.60
68939;BMP180;59064;45.294;11.816;2023-06-24T03:16:39;101468.60;;;18.60
68939;BMP180;59064;45.294;11.816;2023-06-24T03:19:05;101474.60;;;18.60
68939;BMP180;59064;45.294;11.816;2023-06-24T03:21:30;101471.60;;;18.62
68939;BMP180;59064;45.294;11.816;2023-06-24T03:23:56;101473.80;;;18.70
68939;BMP180;59064;45.294;11.816;2023-06-24T03:26:23;101476.80;;;18.70
68939;BMP180;59064;45.294;11.816;2023-06-24T03:28:48;101477.40;;;18.78
68939;BMP180;59064;45.294;11.816;2023-06-24T03:31:15;101480.20;;;18.80
68939;BMP180;59064;45.294;11.816;2023-06-24T03:33:43;101491.40;;;18.80
68939;BMP180;59064;45.294;11.816;2023-06-24T03:36:10;101496.20;;;18.80
68939;BMP180;59064;45.294;11.816;2023-06-24T03:38:36;101496.80;;;18.84
68939;BMP180;59064;45.294;11.816;2023-06-24T03:41:02;101499.40;;;18.90
68939;BMP180;59064;45.294;11.816;2023-06-24T03:43:27;101504.40;;;18.90
68939;BMP180;59064;45.294;11.816;2023-06-24T03:45:52;101505.60;;;18.90
68939;BMP180;59064;45.294;11.816;2023-06-24T03:48:18;101506.60;;;18.90
68939;BMP180;59064;45.294;11.816;2023-06-24T03:50:43;101509.20;;;18.90
68939;BMP180;59064;45.294;11.816;2023-06-24T03:53:09;101509.80;;;18.90
68939;BMP180;59064;45.294;11.816;2023-06-24T03:55:34;101510.80;;;18.90
68939;BMP180;59064;45.294;11.816;2023-06-24T03:58:00;101507.40;;;18.90
68939;BMP180;59064;45.294;11.816;2023-06-24T04:00:25;101514.40;;;18.90
68939;BMP180;59064;45.294;11.816;2023-06-24T04:02:51;101517.80;;;18.90
68939;BMP180;59064;45.294;11.816;2023-06-24T04:05:18;101521.00;;;18.94
68939;BMP180;59064;45.294;11.816;2023-06-24T04:07:43;101522.40;;;18.98
68939;BMP180;59064;45.294;11.816;2023-06-24T04:10:12;101523.80;;;19.00
68939;BMP180;59064;45.294;11.816;2023-06-24T04:12:38;101524.20;;;19.00
68939;BMP180;59064;45.294;11.816;2023-06-24T04:15:04;101526.40;;;19.00
68939;BMP180;59064;45.294;11.816;2023-06-24T04:17:30;101522.80;;;19.06
68939;BMP180;59064;45.294;11.816;2023-06-24T04:19:55;101533.60;;;19.10
68939;BMP180;59064;45.294;11.816;2023-06-24T04:22:21;101537.00;;;19.20
68939;BMP180;59064;45.294;11.816;2023-06-24T04:24:46;101543.20;;;19.30
68939;BMP180;59064;45.294;11.816;2023-06-24T04:27:12;101546.20;;;19.50
68939;BMP180;59064;45.294;11.816;2023-06-24T04:29:37;101543.40;;;19.70
68939;BMP180;59064;45.294;11.816;2023-06-24T04:32:04;101547.60;;;19.90
68939;BMP180;59064;45.294;11.816;2023-06-24T04:34:29;101545.60;;;20.10
68939;BMP180;59064;45.294;11.816;2023-06-24T04:36:55;101544.20;;;20.30
68939;BMP180;59064;45.294;11.816;2023-06-24T04:39:20;101541.20;;;20.50
68939;BMP180;59064;45.294;11.816;2023-06-24T04:41:46;101539.60;;;20.74
68939;BMP180;59064;45.294;11.816;2023-06-24T04:44:12;101544.40;;;21.00
68939;BMP180;59064;45.294;11.816;2023-06-24T04:46:38;101544.00;;;21.16
68939;BMP180;59064;45.294;11.816;2023-06-24T04:49:05;101550.60;;;21.30
68939;BMP180;59064;45.294;11.816;2023-06-24T04:51:30;101556.00;;;21.34
68939;BMP180;59064;45.294;11.816;2023-06-24T04:53:56;101555.40;;;21.40
68939;BMP180;59064;45.294;11.816;2023-06-24T04:56:21;101558.60;;;21.46
68939;BMP180;59064;45.294;11.816;2023-06-24T04:58:47;101566.60;;;21.54
68939;BMP180;59064;45.294;11.816;2023-06-24T05:01:12;101563.40;;;21.70
68939;BMP180;59064;45.294;11.816;2023-06-24T05:03:38;101564.80;;;21.80
68939;BMP180;59064;45.294;11.816;2023-06-24T05:06:03;101561.20;;;22.00
68939;BMP180;59064;45.294;11.816;2023-06-24T05:08:28;101565.00;;;22.10
68939;BMP180;59064;45.294;11.816;2023-06-24T05:10:54;101566.60;;;22.20
68939;BMP180;59064;45.294;11.816;2023-06-24T05:13:19;101570.60;;;22.30
68939;BMP180;59064;45.294;11.816;2023-06-24T05:15:45;101574.20;;;22.50
68939;BMP180;59064;45.294;11.816;2023-06-24T05:18:10;101578.40;;;22.62
68939;BMP180;59064;45.294;11.816;2023-06-24T05:20:36;101577.60;;;22.80
68939;BMP180;59064;45.294;11.816;2023-06-24T05:23:01;101578.20;;;23.00
68939;BMP180;59064;45.294;11.816;2023-06-24T05:25:27;101587.20;;;23.12
68939;BMP180;59064;45.294;11.816;2023-06-24T05:27:52;101589.40;;;23.30
68939;BMP180;59064;45.294;11.816;2023-06-24T05:30:18;101590.20;;;23.50
68939;BMP180;59064;45.294;11.816;2023-06-24T05:32:43;101594.20;;;23.76
68939;BMP180;59064;45.294;11.816;2023-06-24T05:35:09;101592.20;;;24.00
68939;BMP180;59064;45.294;11.816;2023-06-24T05:37:34;101602.60;;;24.20
68939;BMP180;59064;45.294;11.816;2023-06-24T05:40:00;101602.60;;;24.38
68939;BMP180;59064;45.294;11.816;2023-06-24T05:42:27;101601.20;;;24.56
68939;BMP180;59064;45.294;11.816;2023-06-24T05:44:52;101599.60;;;24.70
68939;BMP180;59064;45.294;11.816;2023-06-24T05:47:18;101607.40;;;24.90
68939;BMP180;59064;45.294;11.816;2023-06-24T05:49:43;101612.00;;;25.04
68939;BMP180;59064;45.294;11.816;2023-06-24T05:52:09;101610.40;;;25.20
68939;BMP180;59064;45.294;11.816;2023-06-24T05:54:34;101613.00;;;25.40
68939;BMP180;59064;45.294;11.816;2023-06-24T05:57:00;101613.60;;;25.40
68939;BMP180;59064;45.294;11.816;2023-06-24T05:59:25;101616.40;;;25.50
68939;BMP180;59064;45.294;11.816;2023-06-24T06:01:51;101615.20;;;25.58
68939;BMP180;59064;45.294;11.816;2023-06-24T06:04:16;101616.40;;;25.66
68939;BMP180;59064;45.294;11.816;2023-06-24T06:06:42;101617.60;;;25.70
68939;BMP180;59064;45.294;11.816;2023-06-24T06:09:07;101614.20;;;25.72
68939;BMP180;59064;45.294;11.816;2023-06-24T06:11:33;101618.80;;;25.80
68939;BMP180;59064;45.294;11.816;2023-06-24T06:13:58;101623.60;;;25.90
68939;BMP180;59064;45.294;11.816;2023-06-24T06:16:23;101623.20;;;26.00
68939;BMP180;59064;45.294;11.816;2023-06-24T06:18:49;101629.40;;;26.10
68939;BMP180;59064;45.294;11.816;2023-06-24T06:21:14;101627.20;;;26.10
68939;BMP180;59064;45.294;11.816;2023-06-24T06:23:40;101629.20;;;26.20
68939;BMP180;59064;45.294;11.816;2023-06-24T06:26:05;101639.20;;;26.30
68939;BMP180;59064;45.294;11.816;2023-06-24T06:28:31;101637.00;;;26.40
68939;BMP180;59064;45.294;11.816;2023-06-24T06:30:56;101645.60;;;26.50
68939;BMP180;59064;45.294;11.816;2023-06-24T06:33:22;101651.20;;;26.60
68939;BMP180;59064;45.294;11.816;2023-06-24T06:35:47;101653.40;;;26.80
68939;BMP180;59064;45.294;11.816;2023-06-24T06:38:13;101650.80;;;26.90
68939;BMP180;59064;45.294;11.816;2023-06-24T06:40:39;101657.00;;;26.80
68939;BMP180;59064;45.294;11.816;2023-06-24T06:43:05;101658.20;;;26.80
68939;BMP180;59064;45.294;11.816;2023-06-24T06:45:30;101656.40;;;26.76
68939;BMP180;59064;45.294;11.816;2023-06-24T06:47:56;101661.80;;;26.70
68939;BMP180;59064;45.294;11.816;2023-06-24T06:50:21;101660.00;;;26.70
68939;BMP180;59064;45.294;11.816;2023-06-24T06:52:47;101666.00;;;26.68
68939;BMP180;59064;45.294;11.816;2023-06-24T06:55:12;101667.40;;;26.70
68939;BMP180;59064;45.294;11.816;2023-06-24T06:57:38;101665.80;;;26.80
68939;BMP180;59064;45.294;11.816;2023-06-24T07:00:04;101669.20;;;26.90
68939;BMP180;59064;45.294;11.816;2023-06-24T07:02:29;101666.60;;;27.04
68939;BMP180;59064;45.294;11.816;2023-06-24T07:04:55;101663.00;;;27.30
68939;BMP180;59064;45.294;11.816;2023-06-24T07:07:21;101670.00;;;27.50
68939;BMP180;59064;45.294;11.816;2023-06-24T07:09:46;101665.60;;;27.50
68939;BMP180;59064;45.294;11.816;2023-06-24T07:12:13;101673.80;;;27.40
68939;BMP180;59064;45.294;11.816;2023-06-24T07:14:39;101675.00;;;27.58
68939;BMP180;59064;45.294;11.816;2023-06-24T07:17:04;101677.00;;;27.70
68939;BMP180;59064;45.294;11.816;2023-06-24T07:19:30;101682.00;;;27.70
68939;BMP180;59064;45.294;11.816;2023-06-24T07:21:55;101688.40;;;27.60
68939;BMP180;59064;45.294;11.816;2023-06-24T07:24:21;101685.40;;;27.50
68939;BMP180;59064;45.294;11.816;2023-06-24T07:26:47;101685.60;;;27.40
68939;BMP180;59064;45.294;11.816;2023-06-24T07:29:13;101685.80;;;27.32
68939;BMP180;59064;45.294;11.816;2023-06-24T07:31:38;101686.40;;;27.40
68939;BMP180;59064;45.294;11.816;2023-06-24T07:34:04;101685.80;;;27.50
68939;BMP180;59064;45.294;11.816;2023-06-24T07:36:30;101692.60;;;27.38
68939;BMP180;59064;45.294;11.816;2023-06-24T07:38:55;101693.40;;;27.20
68939;BMP180;59064;45.294;11.816;2023-06-24T07:41:21;101690.40;;;27.20
68939;BMP180;59064;45.294;11.816;2023-06-24T07:43:46;101693.80;;;27.20
68939;BMP180;59064;45.294;11.816;2023-06-24T07:46:12;101697.80;;;27.26
68939;BMP180;59064;45.294;11.816;2023-06-24T07:48:37;101698.40;;;27.32
68939;BMP180;59064;45.294;11.816;2023-06-24T07:51:03;101696.60;;;27.60
68939;BMP180;59064;45.294;11.816;2023-06-24T07:53:28;101692.20;;;27.80
68939;BMP180;59064;45.294;11.816;2023-06-24T07:55:54;101693.40;;;27.94
68939;BMP180;59064;45.294;11.816;2023-06-24T07:58:19;101692.00;;;27.98
68939;BMP180;59064;45.294;11.816;2023-06-24T08:00:45;101692.00;;;28.00
68939;BMP180;59064;45.294;11.816;2023-06-24T08:03:12;101689.40;;;28.00
68939;BMP180;59064;45.294;11.816;2023-06-24T08:05:38;101689.40;;;27.90
68939;BMP180;59064;45.294;11.816;2023-06-24T08:08:05;101688.20;;;28.00
68939;BMP180;59064;45.294;11.816;2023-06-24T08:10:30;101692.40;;;28.00
68939;BMP180;59064;45.294;11.816;2023-06-24T08:12:56;101693.80;;;27.90
68939;BMP180;59064;45.294;11.816;2023-06-24T08:15:21;101695.20;;;27.96
68939;BMP180;59064;45.294;11.816;2023-06-24T08:17:53;101698.00;;;28.30
68939;BMP180;59064;45.294;11.816;2023-06-24T08:20:23;101696.00;;;28.74
68939;BMP180;59064;45.294;11.816;2023-06-24T08:22:49;101699.20;;;29.12
68939;BMP180;59064;45.294;11.816;2023-06-24T08:25:15;101695.80;;;29.36
68939;BMP180;59064;45.294;11.816;2023-06-24T08:27:40;101698.00;;;29.70
68939;BMP180;59064;45.294;11.816;2023-06-24T08:30:06;101686.40;;;29.80
68939;BMP180;59064;45.294;11.816;2023-06-24T08:32:33;101685.80;;;29.48
68939;BMP180;59064;45.294;11.816;2023-06-24T08:34:58;101685.60;;;29.14
68939;BMP180;59064;45.294;11.816;2023-06-24T08:37:23;101687.80;;;29.00
68939;BMP180;59064;45.294;11.816;2023-06-24T08:39:49;101685.60;;;29.10
68939;BMP180;59064;45.294;11.816;2023-06-24T08:42:14;101683.60;;;29.30
68939;BMP180;59064;45.294;11.816;2023-06-24T08:44:41;101679.40;;;29.58
68939;BMP180;59064;45.294;11.816;2023-06-24T08:47:06;101678.80;;;29.70
68939;BMP180;59064;45.294;11.816;2023-06-24T08:49:34;101674.40;;;30.06
68939;BMP180;59064;45.294;11.816;2023-06-24T08:52:07;101674.40;;;30.48
68939;BMP180;59064;45.294;11.816;2023-06-24T08:54:37;101677.40;;;30.10
68939;BMP180;59064;45.294;11.816;2023-06-24T08:57:04;101676.00;;;29.88
68939;BMP180;59064;45.294;11.816;2023-06-24T08:59:36;101679.00;;;29.70
68939;BMP180;59064;45.294;11.816;2023-06-24T09:02:03;101682.40;;;29.90
68939;BMP180;59064;45.294;11.816;2023-06-24T09:04:28;101682.80;;;30.28
68939;BMP180;59064;45.294;11.816;2023-06-24T09:06:54;101679.20;;;30.80
68939;BMP180;59064;45.294;11.816;2023-06-24T09:09:21;101677.80;;;31.16
68939;BMP180;59064;45.294;11.816;2023-06-24T09:11:58;101675.60;;;31.50
68939;BMP180;59064;45.294;11.816;2023-06-24T09:14:24;101671.00;;;31.20
68939;BMP180;59064;45.294;11.816;2023-06-24T09:19:22;101669.80;;;30.48
68939;BMP180;59064;45.294;11.816;2023-06-24T09:21:48;101673.00;;;30.70
68939;BMP180;59064;45.294;11.816;2023-06-24T09:24:14;101672.00;;;31.00
68939;BMP180;59064;45.294;11.816;2023-06-24T09:26:42;101664.80;;;30.90
68939;BMP180;59064;45.294;11.816;2023-06-24T09:29:13;101668.20;;;30.50
68939;BMP180;59064;45.294;11.816;2023-06-24T09:31:49;101664.20;;;30.46
68939;BMP180;59064;45.294;11.816;2023-06-24T09:34:15;101657.40;;;30.68
68939;BMP180;59064;45.294;11.816;2023-06-24T09:36:44;101662.00;;;30.88
68939;BMP180;59064;45.294;11.816;2023-06-24T09:39:10;101655.20;;;31.10
68939;BMP180;59064;45.294;11.816;2023-06-24T09:41:36;101660.60;;;30.88
68939;BMP180;59064;45.294;11.816;2023-06-24T09:44:08;101662.40;;;30.70
68939;BMP180;59064;45.294;11.816;2023-06-24T09:46:34;101654.80;;;30.70
68939;BMP180;59064;45.294;11.816;2023-06-24T09:49:01;101653.20;;;30.80
68939;BMP180;59064;45.294;11.816;2023-06-24T09:51:27;101649.60;;;30.90
68939;BMP180;59064;45.294;11.816;2023-06-24T09:53:53;101647.00;;;31.20
68939;BMP180;59064;45.294;11.816;2023-06-24T09:56:20;101644.20;;;31.20
68939;BMP180;59064;45.294;11.816;2023-06-24T09:58:46;101637.60;;;31.20
68939;BMP180;59064;45.294;11.816;2023-06-24T10:01:12;101640.20;;;30.78
68939;BMP180;59064;45.294;11.816;2023-06-24T10:03:38;101649.00;;;30.58
68939;BMP180;59064;45.294;11.816;2023-06-24T10:06:05;101649.60;;;31.00
68939;BMP180;59064;45.294;11.816;2023-06-24T10:08:31;101647.40;;;31.46
68939;BMP180;59064;45.294;11.816;2023-06-24T10:10:58;101638.20;;;31.90
68939;BMP180;59064;45.294;11.816;2023-06-24T10:13:24;101633.80;;;31.88
68939;BMP180;59064;45.294;11.816;2023-06-24T10:15:50;101629.00;;;31.74
68939;BMP180;59064;45.294;11.816;2023-06-24T10:20:53;101625.00;;;32.00
68939;BMP180;59064;45.294;11.816;2023-06-24T10:23:19;101623.20;;;32.12
68939;BMP180;59064;45.294;11.816;2023-06-24T10:25:47;101621.00;;;32.56
68939;BMP180;59064;45.294;11.816;2023-06-24T10:28:13;101619.40;;;33.16
68939;BMP180;59064;45.294;11.816;2023-06-24T10:30:38;101621.20;;;33.68
68939;BMP180;59064;45.294;11.816;2023-06-24T10:33:09;101613.80;;;33.54
68939;BMP180;59064;45.294;11.816;2023-06-24T10:35:41;101611.80;;;33.30
68939;BMP180;59064;45.294;11.816;2023-06-24T10:38:09;101609.40;;;33.30
68939;BMP180;59064;45.294;11.816;2023-06-24T10:40:40;101604.00;;;33.30
68939;BMP180;59064;45.294;11.816;2023-06-24T10:43:27;101604.20;;;33.06
68939;BMP180;59064;45.294;11.816;2023-06-24T10:45:54;101613.20;;;32.60
68939;BMP180;59064;45.294;11.816;2023-06-24T10:48:21;101605.40;;;32.64
68939;BMP180;59064;45.294;11.816;2023-06-24T10:50:47;101608.20;;;32.58
68939;BMP180;59064;45.294;11.816;2023-06-24T10:53:13;101599.00;;;32.78
68939;BMP180;59064;45.294;11.816;2023-06-24T10:55:39;101593.40;;;32.88
68939;BMP180;59064;45.294;11.816;2023-06-24T10:58:12;101591.40;;;32.70
68939;BMP180;59064;45.294;11.816;2023-06-24T11:00:42;101589.40;;;32.80
68939;BMP180;59064;45.294;11.816;2023-06-24T11:03:13;101589.20;;;33.08
68939;BMP180;59064;45.294;11.816;2023-06-24T11:05:44;101588.80;;;33.40
68939;BMP180;59064;45.294;11.816;2023-06-24T11:08:10;101591.00;;;33.62
68939;BMP180;59064;45.294;11.816;2023-06-24T11:10:48;101591.20;;;33.88
68939;BMP180;59064;45.294;11.816;2023-06-24T11:13:14;101585.40;;;33.80
68939;BMP180;59064;45.294;11.816;2023-06-24T11:15:40;101583.80;;;33.84
68939;BMP180;59064;45.294;11.816;2023-06-24T11:18:10;101586.40;;;34.00
68939;BMP180;59064;45.294;11.816;2023-06-24T11:20:37;101581.80;;;34.10
68939;BMP180;59064;45.294;11.816;2023-06-24T11:23:09;101583.60;;;34.10
68939;BMP180;59064;45.294;11.816;2023-06-24T11:25:42;101581.00;;;34.04
68939;BMP180;59064;45.294;11.816;2023-06-24T11:28:18;101577.00;;;33.80
68939;BMP180;59064;45.294;11.816;2023-06-24T11:30:44;101578.60;;;33.58
68939;BMP180;59064;45.294;11.816;2023-06-24T11:33:09;101571.40;;;33.04
68939;BMP180;59064;45.294;11.816;2023-06-24T11:35:35;101571.20;;;32.74
68939;BMP180;59064;45.294;11.816;2023-06-24T11:38:02;101567.20;;;32.80
68939;BMP180;59064;45.294;11.816;2023-06-24T11:40:30;101567.60;;;32.50
68939;BMP180;59064;45.294;11.816;2023-06-24T11:42:56;101569.60;;;32.40
68939;BMP180;59064;45.294;11.816;2023-06-24T11:45:22;101569.00;;;32.66
68939;BMP180;59064;45.294;11.816;2023-06-24T11:47:48;101567.20;;;32.80
68939;BMP180;59064;45.294;11.816;2023-06-24T11:50:17;101567.60;;;32.80
68939;BMP180;59064;45.294;11.816;2023-06-24T11:52:47;101562.20;;;32.80
68939;BMP180;59064;45.294;11.816;2023-06-24T11:55:22;101558.00;;;32.72
68939;BMP180;59064;45.294;11.816;2023-06-24T12:00:21;101560.60;;;33.26
68939;BMP180;59064;45.294;11.816;2023-06-24T12:02:49;101558.40;;;33.64
68939;BMP180;59064;45.294;11.816;2023-06-24T12:05:29;101555.60;;;33.98
68939;BMP180;59064;45.294;11.816;2023-06-24T12:08:14;101549.60;;;33.92
68939;BMP180;59064;45.294;11.816;2023-06-24T12:10:40;101541.40;;;33.70
68939;BMP180;59064;45.294;11.816;2023-06-24T12:13:06;101542.60;;;33.70
68939;BMP180;59064;45.294;11.816;2023-06-24T12:15:33;101540.20;;;33.80
68939;BMP180;59064;45.294;11.816;2023-06-24T12:18:00;101537.80;;;33.80
68939;BMP180;59064;45.294;11.816;2023-06-24T12:20:27;101542.20;;;33.80
68939;BMP180;59064;45.294;11.816;2023-06-24T12:22:53;101540.80;;;33.78
68939;BMP180;59064;45.294;11.816;2023-06-24T12:25:18;101542.00;;;33.90
68939;BMP180;59064;45.294;11.816;2023-06-24T12:27:44;101541.00;;;34.08
68939;BMP180;59064;45.294;11.816;2023-06-24T12:30:11;101544.20;;;34.20
68939;BMP180;59064;45.294;11.816;2023-06-24T12:32:37;101538.00;;;34.20
68939;BMP180;59064;45.294;11.816;2023-06-24T12:35:03;101541.60;;;34.10
68939;BMP180;59064;45.294;11.816;2023-06-24T12:37:32;101549.00;;;34.24
68939;BMP180;59064;45.294;11.816;2023-06-24T12:40:05;101546.60;;;34.50
68939;BMP180;59064;45.294;11.816;2023-06-24T12:42:30;101541.80;;;34.16
68939;BMP180;59064;45.294;11.816;2023-06-24T12:44:56;101548.00;;;34.04
68939;BMP180;59064;45.294;11.816;2023-06-24T12:47:21;101542.80;;;34.50
68939;BMP180;59064;45.294;11.816;2023-06-24T12:49:47;101542.60;;;34.70
68939;BMP180;59064;45.294;11.816;2023-06-24T12:52:13;101543.80;;;34.70
68939;BMP180;59064;45.294;11.816;2023-06-24T12:54:39;101540.20;;;34.62
68939;BMP180;59064;45.294;11.816;2023-06-24T12:57:05;101537.80;;;34.60
68939;BMP180;59064;45.294;11.816;2023-06-24T12:59:30;101543.80;;;34.56
68939;BMP180;59064;45.294;11.816;2023-06-24T13:01:56;101543.40;;;34.70
68939;BMP180;59064;45.294;11.816;2023-06-24T13:04:21;101537.00;;;34.70
68939;BMP180;59064;45.294;11.816;2023-06-24T13:06:52;101538.60;;;34.70
68939;BMP180;59064;45.294;11.816;2023-06-24T13:09:17;101537.80;;;34.70
68939;BMP180;59064;45.294;11.816;2023-06-24T13:11:43;101536.40;;;34.50
68939;BMP180;59064;45.294;11.816;2023-06-24T13:14:08;101538.00;;;34.70
68939;BMP180;59064;45.294;11.816;2023-06-24T13:16:36;101540.00;;;35.00
68939;BMP180;59064;45.294;11.816;2023-06-24T13:19:02;101540.40;;;35.30
68939;BMP180;59064;45.294;11.816;2023-06-24T13:21:28;101542.60;;;35.80
68939;BMP180;59064;45.294;11.816;2023-06-24T13:23:53;101537.00;;;35.70
68939;BMP180;59064;45.294;11.816;2023-06-24T13:26:18;101541.80;;;35.80
68939;BMP180;59064;45.294;11.816;2023-06-24T13:28:44;101537.40;;;35.70
68939;BMP180;59064;45.294;11.816;2023-06-24T13:31:09;101533.00;;;36.20
68939;BMP180;59064;45.294;11.816;2023-06-24T13:33:35;101534.00;;;36.60
68939;BMP180;59064;45.294;11.816;2023-06-24T13:36:00;101535.00;;;36.62
68939;BMP180;59064;45.294;11.816;2023-06-24T13:38:27;101528.60;;;36.12
68939;BMP180;59064;45.294;11.816;2023-06-24T13:40:53;101530.00;;;36.34
68939;BMP180;59064;45.294;11.816;2023-06-24T13:43:18;101534.40;;;36.50
68939;BMP180;59064;45.294;11.816;2023-06-24T13:45:45;101531.60;;;36.86
68939;BMP180;59064;45.294;11.816;2023-06-24T13:48:11;101536.20;;;37.20
68939;BMP180;59064;45.294;11.816;2023-06-24T13:50:36;101540.60;;;37.36
68939;BMP180;59064;45.294;11.816;2023-06-24T13:53:02;101532.00;;;37.20
68939;BMP180;59064;45.294;11.816;2023-06-24T13:55:28;101529.60;;;37.30
68939;BMP180;59064;45.294;11.816;2023-06-24T13:57:54;101530.20;;;37.60